KDVL

Devils Lake Regional Airport

Devils Lake, North Dakota, USA
METAR KDVL 171956Z AUTO 21006KT 10SM CLR 10/M04 A3032 RMK AO2 SLP298 T01001044
Observed Flight Rules
Oct-17 @ 19:56 UTC (36 minutes ago) Visual Flight Rules
Wind Visibility Clouds
210° at 6 knots 10 miles
  • Clear skies
Temperatures Readings
Current 10°C / 50°F
Dewpoint -4°C / 25°F
Humidity 37%
Altimeter 30.32" Hg
Pressure 1029.8 hPa
Elevation 443
METAR KDVL 171956Z AUTO 21006KT 10SM CLR 10/M04 A3032 RMK AO2 SLP298 T01001044
Observed Flight Rules
Oct-17 @ 19:56 UTC
(36 minutes ago)
VFR
Wind Visibility
210° at 6 knots 10 miles
Clouds
  • Clear skies
Temperature Dewpoint
10°C / 50°F -4°C / 25°F
Humidity Altimeter Pressure
37% 30.32" Hg 1029.8 hPa